Terminal Aerodrome Forecast
Issued by NWS Sterling, VA

Current Version | Previous Version | Graphics & Text | Print | Product List | Glossary On
Versions: 1 2 3 4 5 6 7 8 9 10 11 12 13 14 15 16 17 18 19 20 21 22
000
FTUS41 KLWX 261700
TAFDCA
TAF
KDCA 261737Z 2618/2718 36010G18KT 3SM -RASN OVC008
     FM262100 33010G20KT 5SM -RASN BKN008 OVC015
     FM262300 32010KT P6SM SCT008 BKN025
     FM270400 30005KT P6SM BKN050=

USA.gov is the U.S. government's official web portal to all federal, state and local government web resources and services.